createdAt,value
2022-11-13T00:01:27.581Z,91.24
2022-11-13T00:03:54.303Z,93.94
2022-11-13T00:06:21.003Z,91.31
2022-11-13T00:08:52.994Z,91.16
2022-11-13T00:11:19.878Z,91.48
2022-11-13T00:13:46.876Z,91.58
2022-11-13T00:16:14.406Z,91.61
2022-11-13T00:18:41.916Z,91.50
2022-11-13T00:21:09.779Z,91.37
2022-11-13T00:23:36.778Z,91.02
2022-11-13T00:26:22.481Z,90.75
2022-11-13T00:28:52.855Z,90.17
2022-11-13T00:31:19.514Z,88.90
2022-11-13T00:34:09.022Z,89.15
2022-11-13T00:36:32.889Z,88.82
2022-11-13T00:38:59.543Z,86.55
2022-11-13T00:41:26.204Z,92.68
2022-11-13T00:43:52.899Z,95.25
2022-11-13T00:46:19.564Z,93.41
2022-11-13T00:48:47.287Z,92.60
2022-11-13T00:51:14.187Z,91.84
2022-11-13T00:53:40.861Z,91.72
2022-11-13T00:56:07.592Z,91.46
2022-11-13T00:58:34.244Z,94.68
2022-11-13T01:01:05.883Z,92.86
2022-11-13T01:03:32.528Z,93.36
2022-11-13T01:05:59.208Z,94.31
2022-11-13T01:08:26.165Z,93.73
2022-11-13T01:10:53.956Z,92.11
2022-11-13T01:13:20.826Z,91.72
2022-11-13T01:15:47.512Z,91.43
2022-11-13T01:18:14.168Z,92.87
2022-11-13T01:20:40.992Z,93.02
2022-11-13T01:23:07.728Z,96.45
2022-11-13T01:25:34.415Z,95.21
2022-11-13T01:28:01.052Z,98.29
2022-11-13T01:30:27.743Z,100.00
2022-11-13T01:32:54.378Z,100.00
2022-11-13T01:35:21.263Z,100.00
2022-11-13T01:37:47.914Z,97.63
2022-11-13T01:40:14.777Z,94.95
2022-11-13T01:42:41.446Z,91.30
2022-11-13T01:45:27.373Z,92.42
2022-11-13T01:47:54.029Z,94.36
2022-11-13T01:50:20.733Z,94.94
2022-11-13T01:52:47.365Z,97.86
2022-11-13T01:55:14.658Z,95.34
2022-11-13T01:57:41.627Z,94.91
2022-11-13T02:00:15.277Z,100.00
2022-11-13T02:02:41.978Z,96.94
2022-11-13T02:05:09.404Z,96.23
2022-11-13T02:07:36.091Z,95.93
2022-11-13T02:10:02.777Z,98.45
2022-11-13T02:12:31.447Z,97.55
2022-11-13T02:14:58.481Z,98.08
2022-11-13T02:17:27.028Z,96.96
2022-11-13T02:19:58.080Z,100.00
2022-11-13T02:22:43.335Z,100.00
2022-11-13T02:25:10.041Z,100.00
2022-11-13T02:27:40.259Z,100.00
2022-11-13T02:30:16.296Z,100.00
2022-11-13T02:32:44.383Z,100.00
2022-11-13T02:35:11.755Z,100.00
2022-11-13T02:37:38.520Z,100.00
2022-11-13T02:40:05.454Z,100.00
2022-11-13T02:42:32.459Z,100.00
2022-11-13T02:44:59.353Z,99.35
2022-11-13T02:47:26.080Z,98.92
2022-11-13T02:49:52.742Z,98.49
2022-11-13T02:52:19.459Z,100.00
2022-11-13T02:54:46.116Z,100.00
2022-11-13T02:57:12.775Z,100.00
2022-11-13T02:59:39.419Z,100.00
2022-11-13T03:02:06.201Z,100.00
2022-11-13T03:04:57.221Z,100.00
2022-11-13T03:07:19.635Z,100.00
2022-11-13T03:09:46.539Z,100.00
2022-11-13T03:12:13.213Z,100.00
2022-11-13T03:14:39.861Z,100.00
2022-11-13T03:17:06.539Z,100.00
2022-11-13T03:19:33.220Z,100.00
2022-11-13T03:21:59.913Z,100.00
2022-11-13T03:24:26.552Z,100.00
2022-11-13T03:26:53.625Z,100.00
2022-11-13T03:29:20.285Z,99.10
2022-11-13T03:31:47.000Z,99.22
2022-11-13T03:34:13.664Z,99.56
2022-11-13T03:36:40.338Z,98.85
2022-11-13T03:39:07.018Z,98.14
2022-11-13T03:41:33.690Z,99.23
2022-11-13T03:44:00.357Z,98.68
2022-11-13T03:46:27.040Z,100.00
2022-11-13T03:48:53.702Z,97.42
2022-11-13T03:51:20.348Z,97.23
2022-11-13T03:53:47.006Z,97.79
2022-11-13T03:56:13.655Z,98.22
2022-11-13T03:58:40.593Z,100.00
2022-11-13T04:01:07.491Z,100.00
2022-11-13T04:03:34.130Z,100.00
2022-11-13T04:06:00.798Z,99.97
2022-11-13T04:08:27.720Z,100.00
2022-11-13T04:10:54.596Z,100.00
2022-11-13T04:13:21.260Z,100.00
2022-11-13T04:15:47.979Z,100.00
2022-11-13T04:18:14.650Z,100.00
2022-11-13T04:20:41.306Z,100.00
2022-11-13T04:23:12.724Z,100.00
2022-11-13T04:25:39.431Z,100.00
2022-11-13T04:28:06.057Z,100.00
2022-11-13T04:30:32.757Z,100.00
2022-11-13T04:32:59.437Z,100.00
2022-11-13T04:35:26.113Z,100.00
2022-11-13T04:37:53.299Z,100.00
2022-11-13T04:40:19.965Z,100.00
2022-11-13T04:42:49.548Z,100.00
2022-11-13T04:45:20.397Z,100.00
2022-11-13T04:47:47.171Z,100.00
2022-11-13T04:50:14.611Z,100.00
2022-11-13T04:52:41.326Z,100.00
2022-11-13T04:55:08.501Z,100.00
2022-11-13T04:57:35.182Z,100.00
2022-11-13T05:00:01.953Z,100.00
2022-11-13T05:02:28.617Z,100.00
2022-11-13T05:04:55.680Z,100.00
2022-11-13T05:07:24.044Z,100.00
2022-11-13T05:09:50.707Z,100.00
2022-11-13T05:12:17.414Z,100.00
2022-11-13T05:14:44.068Z,100.00
2022-11-13T05:17:11.156Z,100.00
2022-11-13T05:19:37.830Z,100.00
2022-11-13T05:22:04.736Z,100.00
2022-11-13T05:24:31.438Z,100.00
2022-11-13T05:26:58.117Z,100.00
2022-11-13T05:29:24.868Z,100.00
2022-11-13T05:31:51.535Z,100.00
2022-11-13T05:34:18.226Z,100.00
2022-11-13T05:36:44.918Z,100.00
2022-11-13T05:39:11.590Z,100.00
2022-11-13T05:41:38.307Z,100.00
2022-11-13T05:44:04.976Z,100.00
2022-11-13T05:46:31.638Z,100.00
2022-11-13T05:48:59.087Z,100.00
2022-11-13T05:51:26.633Z,100.00
2022-11-13T05:53:53.796Z,100.00
2022-11-13T05:56:22.252Z,100.00
2022-11-13T05:58:48.931Z,100.00
2022-11-13T06:01:17.004Z,100.00
2022-11-13T06:03:43.985Z,100.00
2022-11-13T06:06:11.910Z,100.00
2022-11-13T06:08:39.628Z,100.00
2022-11-13T06:11:07.252Z,100.00
2022-11-13T06:13:34.026Z,100.00
2022-11-13T06:16:01.648Z,100.00
2022-11-13T06:18:28.796Z,100.00
2022-11-13T06:20:55.838Z,100.00
2022-11-13T06:23:22.465Z,100.00
2022-11-13T06:25:49.160Z,100.00
2022-11-13T06:28:15.877Z,100.00
2022-11-13T06:30:42.649Z,100.00
2022-11-13T06:33:09.317Z,100.00
2022-11-13T06:35:35.961Z,100.00
2022-11-13T06:38:02.656Z,100.00
2022-11-13T06:40:29.418Z,100.00
2022-11-13T06:42:56.104Z,100.00
2022-11-13T06:45:22.834Z,100.00
2022-11-13T06:47:49.486Z,100.00
2022-11-13T06:50:16.173Z,100.00
2022-11-13T06:52:42.820Z,100.00
2022-11-13T06:55:09.474Z,100.00
2022-11-13T06:57:36.150Z,100.00
2022-11-13T07:00:02.852Z,100.00
2022-11-13T07:02:29.517Z,100.00
2022-11-13T07:04:56.195Z,100.00
2022-11-13T07:07:22.932Z,100.00
2022-11-13T07:09:49.687Z,100.00
2022-11-13T07:12:16.344Z,100.00
2022-11-13T07:14:42.995Z,100.00
2022-11-13T07:17:10.692Z,100.00
2022-11-13T07:19:37.483Z,100.00
2022-11-13T07:22:04.138Z,100.00
2022-11-13T07:24:30.794Z,100.00
2022-11-13T07:26:57.438Z,100.00
2022-11-13T07:29:24.108Z,100.00
2022-11-13T07:31:50.765Z,100.00
2022-11-13T07:34:17.457Z,100.00
2022-11-13T07:36:44.136Z,100.00
2022-11-13T07:39:10.918Z,100.00
2022-11-13T07:41:37.585Z,100.00
2022-11-13T07:44:08.843Z,100.00
2022-11-13T07:46:36.161Z,100.00
2022-11-13T07:49:02.837Z,100.00
2022-11-13T07:51:29.502Z,100.00
2022-11-13T07:53:56.185Z,100.00
2022-11-13T07:56:23.514Z,100.00
2022-11-13T07:58:50.329Z,100.00
2022-11-13T08:01:17.163Z,100.00
2022-11-13T08:03:43.860Z,100.00
2022-11-13T08:06:10.740Z,100.00
2022-11-13T08:08:37.451Z,100.00
2022-11-13T08:11:06.728Z,100.00
2022-11-13T08:13:34.435Z,100.00
2022-11-13T08:16:01.598Z,100.00
2022-11-13T08:18:28.969Z,100.00
2022-11-13T08:20:55.950Z,100.00
2022-11-13T08:23:22.656Z,100.00
2022-11-13T08:25:49.372Z,100.00
2022-11-13T08:28:16.090Z,100.00
2022-11-13T08:30:45.983Z,100.00
2022-11-13T08:33:12.640Z,100.00
2022-11-13T08:35:39.458Z,100.00
2022-11-13T08:38:06.724Z,100.00
2022-11-13T08:40:33.510Z,100.00
2022-11-13T08:43:00.744Z,100.00
2022-11-13T08:45:28.081Z,100.00
2022-11-13T08:47:54.762Z,100.00
2022-11-13T08:50:21.448Z,100.00
2022-11-13T08:52:48.197Z,100.00
2022-11-13T08:55:14.928Z,100.00
2022-11-13T08:57:41.651Z,100.00
2022-11-13T09:00:08.599Z,100.00
2022-11-13T09:02:35.242Z,100.00
2022-11-13T09:05:01.924Z,100.00
2022-11-13T09:07:28.632Z,100.00
2022-11-13T09:09:55.303Z,100.00
2022-11-13T09:12:21.945Z,98.84
2022-11-13T09:14:48.638Z,91.84
2022-11-13T09:17:15.382Z,89.13
2022-11-13T09:19:42.110Z,84.40
2022-11-13T09:22:08.745Z,89.24
2022-11-13T09:24:35.376Z,88.04
2022-11-13T09:27:02.043Z,89.94
2022-11-13T09:29:28.864Z,90.47
2022-11-13T09:31:55.775Z,88.15
2022-11-13T09:34:22.681Z,87.46
2022-11-13T09:36:49.352Z,76.87
2022-11-13T09:39:17.358Z,81.80
2022-11-13T09:41:54.370Z,84.21
2022-11-13T09:44:24.750Z,86.33
2022-11-13T09:46:54.930Z,93.03
2022-11-13T09:49:21.563Z,88.46
2022-11-13T09:51:50.763Z,87.19
2022-11-13T09:54:17.476Z,90.58
2022-11-13T09:56:47.205Z,92.34
2022-11-13T09:59:22.694Z,96.99
2022-11-13T10:02:08.307Z,98.77
2022-11-13T10:04:53.490Z,100.00
2022-11-13T10:07:43.424Z,100.00
2022-11-13T10:10:22.919Z,100.00
2022-11-13T10:12:50.110Z,100.00
2022-11-13T10:15:16.866Z,100.00
2022-11-13T10:17:49.257Z,100.00
2022-11-13T10:20:16.253Z,100.00
2022-11-13T10:22:51.925Z,100.00
2022-11-13T10:27:15.379Z,100.00
2022-11-13T10:29:47.746Z,100.00
2022-11-13T10:32:23.835Z,100.00
2022-11-13T10:35:09.761Z,100.00
2022-11-13T10:38:00.907Z,100.00
2022-11-13T10:40:35.349Z,100.00
2022-11-13T10:43:17.138Z,96.53
2022-11-13T10:45:57.815Z,95.02
2022-11-13T10:48:27.051Z,96.76
2022-11-13T10:51:02.352Z,96.82
2022-11-13T10:53:38.371Z,96.57
2022-11-13T10:56:22.817Z,98.82
2022-11-13T10:59:10.621Z,99.36
2022-11-13T11:01:37.746Z,98.61
2022-11-13T11:04:12.726Z,96.01
2022-11-13T11:09:31.215Z,100.00
2022-11-13T11:12:30.225Z,100.00
2022-11-13T11:14:57.308Z,98.48
2022-11-13T11:17:25.711Z,98.93
2022-11-13T11:20:05.829Z,97.87
2022-11-13T11:22:35.258Z,100.00
2022-11-13T11:25:26.193Z,100.00
2022-11-13T11:28:01.138Z,100.00
2022-11-13T11:30:32.344Z,100.00
2022-11-13T11:33:10.182Z,100.00
2022-11-13T11:35:49.469Z,100.00
2022-11-13T11:38:22.202Z,98.87
2022-11-13T11:40:54.170Z,96.54
2022-11-13T11:43:28.818Z,98.14
2022-11-13T11:45:55.708Z,96.32
2022-11-13T11:48:26.688Z,96.55
2022-11-13T11:51:12.680Z,94.11
2022-11-13T11:53:58.893Z,94.22
2022-11-13T11:56:35.796Z,93.09
2022-11-13T11:59:15.879Z,93.20
2022-11-13T12:02:04.509Z,92.77
2022-11-13T12:04:38.788Z,95.63
2022-11-13T12:07:25.281Z,95.53
2022-11-13T12:10:23.664Z,95.83
2022-11-13T12:13:06.236Z,96.44
2022-11-13T12:15:51.504Z,97.44
2022-11-13T12:18:30.768Z,98.39
2022-11-13T12:21:18.392Z,100.00
2022-11-13T12:23:57.654Z,100.00
2022-11-13T12:26:51.721Z,100.00
2022-11-13T12:29:46.207Z,100.00
2022-11-13T12:32:20.984Z,100.00
2022-11-13T12:34:57.598Z,100.00
2022-11-13T12:37:54.955Z,100.00
2022-11-13T12:40:50.917Z,98.14
2022-11-13T12:43:29.986Z,100.00
2022-11-13T12:46:00.975Z,100.00
2022-11-13T12:48:36.707Z,99.10
2022-11-13T12:51:11.026Z,96.97
2022-11-13T12:53:48.669Z,93.81
2022-11-13T12:56:31.187Z,91.93
2022-11-13T12:59:28.511Z,85.63
2022-11-13T13:01:57.468Z,84.96
2022-11-13T13:04:55.775Z,81.67
2022-11-13T13:08:05.012Z,80.76
2022-11-13T13:10:42.036Z,80.69
2022-11-13T13:13:18.234Z,77.49
2022-11-13T13:15:56.612Z,77.99
2022-11-13T13:18:23.403Z,78.25
2022-11-13T13:21:01.627Z,79.15
2022-11-13T13:23:31.849Z,78.22
2022-11-13T13:26:26.043Z,79.25
2022-11-13T13:28:55.024Z,80.76
2022-11-13T13:31:43.624Z,80.15
2022-11-13T13:34:44.850Z,80.10
2022-11-13T13:37:46.972Z,80.68
2022-11-13T13:40:38.515Z,82.29
2022-11-13T13:43:23.806Z,82.53
2022-11-13T13:46:13.402Z,84.25
2022-11-13T13:48:41.858Z,83.65
2022-11-13T13:51:24.014Z,84.02
2022-11-13T13:53:51.095Z,83.89
2022-11-13T13:56:19.021Z,85.20
2022-11-13T13:58:46.199Z,84.07
2022-11-13T14:01:19.945Z,84.16
2022-11-13T14:03:47.397Z,80.98
2022-11-13T14:06:24.825Z,82.92
2022-11-13T14:08:51.781Z,81.61
2022-11-13T14:11:30.047Z,82.44
2022-11-13T14:14:08.292Z,83.70
2022-11-13T14:16:35.211Z,82.93
2022-11-13T14:19:05.754Z,85.06
2022-11-13T14:21:32.972Z,85.34
2022-11-13T14:24:02.640Z,85.92
2022-11-13T14:26:29.765Z,85.86
2022-11-13T14:28:59.277Z,85.94
2022-11-13T14:31:32.637Z,87.14
2022-11-13T14:34:10.086Z,88.58
2022-11-13T14:36:37.786Z,89.26
2022-11-13T14:39:05.044Z,88.04
2022-11-13T14:42:01.286Z,91.00
2022-11-13T14:44:36.878Z,90.54
2022-11-13T14:47:06.421Z,90.55
2022-11-13T14:49:36.115Z,90.20
2022-11-13T14:52:03.198Z,90.85
2022-11-13T14:55:00.517Z,91.47
2022-11-13T14:57:24.810Z,89.55
2022-11-13T14:59:51.688Z,87.54
2022-11-13T15:02:20.387Z,88.91
2022-11-13T15:04:47.255Z,86.71
2022-11-13T15:07:33.974Z,87.81
2022-11-13T15:10:01.399Z,86.44
2022-11-13T15:12:28.247Z,86.12
2022-11-13T15:14:54.945Z,85.82
2022-11-13T15:17:22.592Z,85.03
2022-11-13T15:19:52.447Z,84.48
2022-11-13T15:22:27.943Z,82.92
2022-11-13T15:24:55.471Z,82.75
2022-11-13T15:27:22.399Z,82.23
2022-11-13T15:29:49.305Z,81.11
2022-11-13T15:32:16.285Z,81.68
2022-11-13T15:34:43.328Z,82.80
2022-11-13T15:37:15.038Z,82.36
2022-11-13T15:39:42.007Z,83.69
2022-11-13T15:42:14.127Z,85.58
2022-11-13T15:44:41.080Z,86.46
2022-11-13T15:47:23.847Z,87.78
2022-11-13T15:50:12.325Z,88.97
2022-11-13T15:52:39.756Z,89.26
2022-11-13T15:55:17.630Z,90.68
2022-11-13T15:57:44.506Z,92.19
2022-11-13T16:00:25.099Z,95.12
2022-11-13T16:02:56.679Z,95.36
2022-11-13T16:05:25.729Z,93.83
2022-11-13T16:07:53.657Z,97.17
2022-11-13T16:10:21.917Z,98.33
2022-11-13T16:12:48.844Z,99.05
2022-11-13T16:15:16.941Z,98.93
2022-11-13T16:17:48.985Z,99.59
2022-11-13T16:20:17.267Z,100.00
2022-11-13T16:22:44.717Z,100.00
2022-11-13T16:25:17.773Z,100.00
2022-11-13T16:27:44.727Z,100.00
2022-11-13T16:30:28.511Z,100.00
2022-11-13T16:32:55.352Z,100.00
2022-11-13T16:35:22.075Z,100.00
2022-11-13T16:37:48.942Z,100.00
2022-11-13T16:40:15.614Z,100.00
2022-11-13T16:42:42.549Z,100.00
2022-11-13T16:45:09.558Z,100.00
2022-11-13T16:47:36.755Z,100.00
2022-11-13T16:50:03.753Z,97.22
2022-11-13T16:52:32.033Z,98.53
2022-11-13T16:55:03.574Z,99.53
2022-11-13T16:57:33.069Z,99.01
2022-11-13T16:59:59.722Z,100.00
2022-11-13T17:02:26.727Z,100.00
2022-11-13T17:04:56.136Z,100.00
2022-11-13T17:07:23.073Z,100.00
2022-11-13T17:10:10.014Z,100.00
2022-11-13T17:12:36.894Z,100.00
2022-11-13T17:15:03.900Z,100.00
2022-11-13T17:17:30.759Z,100.00
2022-11-13T17:19:57.484Z,100.00
2022-11-13T17:22:24.429Z,100.00
2022-11-13T17:24:51.320Z,100.00
2022-11-13T17:27:18.272Z,99.85
2022-11-13T17:29:45.126Z,99.49
2022-11-13T17:32:11.781Z,97.50
2022-11-13T17:34:38.630Z,98.67
2022-11-13T17:37:05.355Z,100.00
2022-11-13T17:39:32.284Z,100.00
2022-11-13T17:41:59.162Z,100.00
2022-11-13T17:44:25.803Z,100.00
2022-11-13T17:46:52.646Z,100.00
2022-11-13T17:49:19.396Z,100.00
2022-11-13T17:51:46.250Z,100.00
2022-11-13T17:54:12.993Z,97.60
2022-11-13T17:56:41.639Z,97.30
2022-11-13T17:59:11.178Z,95.29
2022-11-13T18:01:38.068Z,96.75
2022-11-13T18:04:05.133Z,98.41
2022-11-13T18:06:31.955Z,94.97
2022-11-13T18:08:58.735Z,90.59
2022-11-13T18:11:27.155Z,86.21
2022-11-13T18:13:54.145Z,88.77
2022-11-13T18:16:25.936Z,89.24
2022-11-13T18:18:55.610Z,88.80
2022-11-13T18:21:26.742Z,88.89
2022-11-13T18:24:04.925Z,92.35
2022-11-13T18:26:32.672Z,99.37
2022-11-13T18:29:01.021Z,100.00
2022-11-13T18:31:28.282Z,100.00
2022-11-13T18:33:56.362Z,100.00
2022-11-13T18:36:23.306Z,100.00
2022-11-13T18:38:50.208Z,100.00
2022-11-13T18:41:20.125Z,100.00
2022-11-13T18:43:48.638Z,100.00
2022-11-13T18:46:17.559Z,97.64
2022-11-13T18:48:45.524Z,92.07
2022-11-13T18:51:14.976Z,93.70
2022-11-13T18:53:43.773Z,92.06
2022-11-13T18:56:13.782Z,92.79
2022-11-13T18:58:42.885Z,94.45
2022-11-13T19:01:11.868Z,93.24
2022-11-13T19:03:50.836Z,100.00
2022-11-13T19:06:27.101Z,97.48
2022-11-13T19:09:01.787Z,96.97
2022-11-13T19:11:30.180Z,95.60
2022-11-13T19:13:57.216Z,95.55
2022-11-13T19:16:26.258Z,98.43
2022-11-13T19:18:55.226Z,97.17
2022-11-13T19:21:24.149Z,96.52
2022-11-13T19:23:51.299Z,94.48
2022-11-13T19:26:18.392Z,94.23
2022-11-13T19:28:49.726Z,96.14
2022-11-13T19:31:19.623Z,95.47
2022-11-13T19:33:46.721Z,93.69
2022-11-13T19:36:18.142Z,92.47
2022-11-13T19:38:45.403Z,93.12
2022-11-13T19:41:12.714Z,94.65
2022-11-13T19:43:41.003Z,94.69
2022-11-13T19:46:10.105Z,94.62
2022-11-13T19:48:38.833Z,94.70
2022-11-13T19:51:09.841Z,97.00
2022-11-13T19:53:37.264Z,100.00
2022-11-13T19:56:04.953Z,98.21
2022-11-13T19:58:32.119Z,97.05
2022-11-13T20:00:59.170Z,97.62
2022-11-13T20:03:27.513Z,96.03
2022-11-13T20:05:56.140Z,97.57
2022-11-13T20:08:26.804Z,100.00
2022-11-13T20:10:54.947Z,100.00
2022-11-13T20:13:21.823Z,100.00
2022-11-13T20:15:54.905Z,100.00
2022-11-13T20:18:21.757Z,100.00
2022-11-13T20:20:54.274Z,100.00
2022-11-13T20:23:21.659Z,100.00
2022-11-13T20:25:52.440Z,100.00
2022-11-13T20:28:19.362Z,100.00
2022-11-13T20:30:46.187Z,100.00
2022-11-13T20:33:12.857Z,100.00
2022-11-13T20:35:39.746Z,100.00
2022-11-13T20:38:06.609Z,100.00
2022-11-13T20:40:33.293Z,100.00
2022-11-13T20:43:00.179Z,100.00
2022-11-13T20:45:27.074Z,100.00
2022-11-13T20:47:53.948Z,100.00
2022-11-13T20:50:20.801Z,100.00
2022-11-13T20:52:47.429Z,100.00
2022-11-13T20:55:14.295Z,100.00
2022-11-13T20:57:41.298Z,100.00
2022-11-13T21:00:09.580Z,100.00
2022-11-13T21:02:36.853Z,100.00
2022-11-13T21:05:03.846Z,100.00
2022-11-13T21:07:30.784Z,100.00
2022-11-13T21:09:57.738Z,100.00
2022-11-13T21:12:24.624Z,100.00
2022-11-13T21:14:52.222Z,100.00
2022-11-13T21:17:19.049Z,100.00
2022-11-13T21:19:45.725Z,100.00
2022-11-13T21:22:12.547Z,100.00
2022-11-13T21:24:39.317Z,100.00
2022-11-13T21:27:06.201Z,100.00
2022-11-13T21:29:33.094Z,100.00
2022-11-13T21:31:59.929Z,100.00
2022-11-13T21:34:26.973Z,100.00
2022-11-13T21:36:53.616Z,100.00
2022-11-13T21:39:20.509Z,100.00
2022-11-13T21:41:47.176Z,100.00
2022-11-13T21:44:14.147Z,100.00
2022-11-13T21:46:45.819Z,100.00
2022-11-13T21:49:13.620Z,100.00
2022-11-13T21:51:42.742Z,100.00
2022-11-13T21:54:09.892Z,100.00
2022-11-13T21:56:37.822Z,100.00
2022-11-13T21:59:05.715Z,100.00
2022-11-13T22:01:38.212Z,100.00
2022-11-13T22:04:06.176Z,100.00
2022-11-13T22:06:36.439Z,100.00
2022-11-13T22:09:26.706Z,100.00
2022-11-13T22:11:53.750Z,100.00
2022-11-13T22:14:20.633Z,100.00
2022-11-13T22:16:47.524Z,100.00
2022-11-13T22:19:24.056Z,100.00
2022-11-13T22:21:54.192Z,100.00
2022-11-13T22:24:21.101Z,100.00
2022-11-13T22:26:50.874Z,100.00
2022-11-13T22:29:17.815Z,100.00
2022-11-13T22:31:45.132Z,100.00
2022-11-13T22:34:12.046Z,100.00
2022-11-13T22:36:38.943Z,100.00
2022-11-13T22:39:06.179Z,100.00
2022-11-13T22:41:34.643Z,100.00
2022-11-13T22:44:03.869Z,100.00
2022-11-13T22:46:31.939Z,100.00
2022-11-13T22:49:01.844Z,100.00
2022-11-13T22:51:41.288Z,100.00
2022-11-13T22:54:10.074Z,100.00
2022-11-13T22:56:38.421Z,100.00
2022-11-13T22:59:07.105Z,100.00
2022-11-13T23:01:35.279Z,100.00
2022-11-13T23:04:04.064Z,100.00
2022-11-13T23:06:33.877Z,100.00
2022-11-13T23:09:01.316Z,100.00
2022-11-13T23:11:30.590Z,100.00
2022-11-13T23:13:59.145Z,100.00
2022-11-13T23:16:27.176Z,100.00
2022-11-13T23:18:56.639Z,100.00
2022-11-13T23:21:25.380Z,96.25
2022-11-13T23:23:52.767Z,94.62
2022-11-13T23:26:19.762Z,99.16
2022-11-13T23:28:46.759Z,99.54
2022-11-13T23:31:13.774Z,98.76
2022-11-13T23:33:40.782Z,99.08
2022-11-13T23:36:09.179Z,98.78
2022-11-13T23:38:36.136Z,97.94
2022-11-13T23:41:03.205Z,97.83
2022-11-13T23:44:01.681Z,96.21
2022-11-13T23:46:17.652Z,96.28
2022-11-13T23:48:44.510Z,95.71
2022-11-13T23:51:11.170Z,97.59
2022-11-13T23:53:38.015Z,96.58
2022-11-13T23:56:04.869Z,96.06
2022-11-13T23:58:32.666Z,98.93
